TCSAN LTFD-LTFD
Flight info
| Callsign | TCSAN |
|---|---|
| Flight time | 0h 26m |
| Altitude | 7500 |
| Route | LTFD LTFD |
| Aircraft | C172/L-SBDFGRY/SB1 |
Departure
| Time | 2026-04-18 17:11 |
|---|---|
| Airport | Balıkesir Koca Seyit Airport (LTFD) |
Arrival
| Time | 2026-04-18 17:37 |
|---|---|
| Airport | Balıkesir Koca Seyit Airport (LTFD) |
| Time | Latitude | Longitude | Altitude | Speed | Heading |
|---|---|---|---|---|---|
| 2026-04-18 17:01 | 39.54985 | 27.01275 | 43 ft | 0 kts | 141° |
| 2026-04-18 17:08 | 39.54987 | 27.01279 | 42 ft | 2 kts | 315° |
| 2026-04-18 17:08 | 39.55013 | 27.01245 | 42 ft | 6 kts | 321° |
| 2026-04-18 17:09 | 39.55018 | 27.01192 | 42 ft | 12 kts | 231° |
| 2026-04-18 17:09 | 39.54990 | 27.01106 | 41 ft | 8 kts | 311° |
| 2026-04-18 17:09 | 39.55092 | 27.01010 | 41 ft | 18 kts | 320° |
| 2026-04-18 17:09 | 39.55104 | 27.00996 | 41 ft | 0 kts | 322° |
| 2026-04-18 17:10 | 39.55109 | 27.00991 | 41 ft | 6 kts | 327° |
| 2026-04-18 17:10 | 39.55201 | 27.00944 | 40 ft | 14 kts | 50° |
| 2026-04-18 17:10 | 39.55362 | 27.01234 | 62 ft | 57 kts | 47° |
| 2026-04-18 17:10 | 39.55595 | 27.01636 | 247 ft | 61 kts | 47° |
| 2026-04-18 17:11 | 39.55861 | 27.02082 | 460 ft | 60 kts | 49° |
| 2026-04-18 17:11 | 39.56101 | 27.02507 | 627 ft | 59 kts | 46° |
| 2026-04-18 17:11 | 39.56347 | 27.02922 | 784 ft | 59 kts | 46° |
| 2026-04-18 17:11 | 39.56601 | 27.03323 | 952 ft | 58 kts | 45° |
| 2026-04-18 17:12 | 39.56890 | 27.03709 | 1082 ft | 62 kts | 32° |
| 2026-04-18 17:12 | 39.57343 | 27.03733 | 1204 ft | 74 kts | 350° |
| 2026-04-18 17:12 | 39.57728 | 27.03233 | 1365 ft | 87 kts | 308° |
| 2026-04-18 17:12 | 39.57761 | 27.02387 | 1477 ft | 104 kts | 257° |
| 2026-04-18 17:13 | 39.57382 | 27.01544 | 1564 ft | 112 kts | 235° |
| 2026-04-18 17:13 | 39.56920 | 27.00695 | 1623 ft | 116 kts | 237° |
| 2026-04-18 17:13 | 39.56459 | 26.99837 | 1668 ft | 117 kts | 236° |
| 2026-04-18 17:13 | 39.55970 | 26.98985 | 1715 ft | 117 kts | 232° |
| 2026-04-18 17:14 | 39.55449 | 26.98169 | 1753 ft | 119 kts | 230° |
| 2026-04-18 17:14 | 39.54905 | 26.97375 | 1836 ft | 115 kts | 227° |
| 2026-04-18 17:14 | 39.54359 | 26.96632 | 1920 ft | 114 kts | 227° |
| 2026-04-18 17:14 | 39.53799 | 26.95889 | 1983 ft | 115 kts | 222° |
| 2026-04-18 17:15 | 39.53234 | 26.95157 | 2052 ft | 115 kts | 228° |
| 2026-04-18 17:15 | 39.52725 | 26.94353 | 2107 ft | 116 kts | 234° |
| 2026-04-18 17:15 | 39.52277 | 26.93481 | 2168 ft | 116 kts | 241° |
| 2026-04-18 17:15 | 39.51894 | 26.92562 | 2234 ft | 115 kts | 250° |
| 2026-04-18 17:16 | 39.51570 | 26.91620 | 2301 ft | 115 kts | 247° |
| 2026-04-18 17:16 | 39.51143 | 26.90725 | 2359 ft | 117 kts | 239° |
| 2026-04-18 17:16 | 39.50704 | 26.89810 | 2394 ft | 119 kts | 244° |
| 2026-04-18 17:16 | 39.50295 | 26.88905 | 2474 ft | 118 kts | 243° |
| 2026-04-18 17:17 | 39.49851 | 26.87975 | 2509 ft | 120 kts | 240° |
| 2026-04-18 17:17 | 39.49376 | 26.87105 | 2575 ft | 120 kts | 234° |
| 2026-04-18 17:17 | 39.48782 | 26.86300 | 2621 ft | 121 kts | 222° |
| 2026-04-18 17:17 | 39.48160 | 26.85562 | 2681 ft | 123 kts | 222° |
| 2026-04-18 17:18 | 39.47752 | 26.84652 | 2663 ft | 114 kts | 287° |
| 2026-04-18 17:18 | 39.48179 | 26.84215 | 2624 ft | 75 kts | 34° |
| 2026-04-18 17:18 | 39.48022 | 26.84798 | 2652 ft | 111 kts | 149° |
| 2026-04-18 17:18 | 39.47286 | 26.84367 | 2667 ft | 125 kts | 246° |
| 2026-04-18 17:19 | 39.47470 | 26.83664 | 2703 ft | 69 kts | 20° |
| 2026-04-18 17:19 | 39.47430 | 26.84240 | 2715 ft | 87 kts | 107° |
| 2026-04-18 17:19 | 39.47458 | 26.84863 | 2712 ft | 69 kts | 45° |
| 2026-04-18 17:19 | 39.47793 | 26.85289 | 2780 ft | 66 kts | 42° |
| 2026-04-18 17:20 | 39.47994 | 26.85593 | 2814 ft | 67 kts | 51° |
| 2026-04-18 17:20 | 39.48436 | 26.86903 | 2885 ft | 69 kts | 59° |
| 2026-04-18 17:20 | 39.48621 | 26.87485 | 2886 ft | 72 kts | 59° |
| 2026-04-18 17:21 | 39.48806 | 26.88064 | 2949 ft | 69 kts | 58° |
| 2026-04-18 17:21 | 39.49009 | 26.88642 | 2940 ft | 73 kts | 58° |
| 2026-04-18 17:21 | 39.49271 | 26.89182 | 2981 ft | 69 kts | 33° |
| 2026-04-18 17:21 | 39.49746 | 26.88940 | 3000 ft | 104 kts | 313° |
| 2026-04-18 17:22 | 39.49593 | 26.87905 | 2962 ft | 133 kts | 234° |
| 2026-04-18 17:22 | 39.48951 | 26.87077 | 2994 ft | 127 kts | 256° |
| 2026-04-18 17:22 | 39.49189 | 26.86338 | 2913 ft | 81 kts | 9° |
| 2026-04-18 17:22 | 39.49202 | 26.86881 | 2801 ft | 118 kts | 137° |
| 2026-04-18 17:23 | 39.48491 | 26.86343 | 2704 ft | 132 kts | 270° |
| 2026-04-18 17:23 | 39.48875 | 26.85811 | 2697 ft | 77 kts | 36° |
| 2026-04-18 17:23 | 39.49073 | 26.86455 | 2701 ft | 79 kts | 71° |
| 2026-04-18 17:23 | 39.49131 | 26.87171 | 2713 ft | 80 kts | 73° |
| 2026-04-18 17:24 | 39.49206 | 26.87899 | 2667 ft | 82 kts | 72° |
| 2026-04-18 17:24 | 39.49284 | 26.88596 | 2642 ft | 69 kts | 67° |
| 2026-04-18 17:24 | 39.49438 | 26.89162 | 2549 ft | 65 kts | 60° |
| 2026-04-18 17:24 | 39.49610 | 26.89678 | 2477 ft | 61 kts | 59° |
| 2026-04-18 17:25 | 39.49780 | 26.90192 | 2385 ft | 62 kts | 59° |
| 2026-04-18 17:25 | 39.49950 | 26.90701 | 2308 ft | 61 kts | 59° |
| 2026-04-18 17:25 | 39.50147 | 26.91168 | 2264 ft | 57 kts | 46° |
| 2026-04-18 17:25 | 39.50446 | 26.91530 | 2231 ft | 59 kts | 41° |
| 2026-04-18 17:26 | 39.50764 | 26.91915 | 2281 ft | 66 kts | 41° |
| 2026-04-18 17:26 | 39.51115 | 26.92312 | 2343 ft | 68 kts | 41° |
| 2026-04-18 17:26 | 39.51475 | 26.92737 | 2390 ft | 72 kts | 40° |
| 2026-04-18 17:26 | 39.51895 | 26.93137 | 2396 ft | 76 kts | 35° |
| 2026-04-18 17:27 | 39.52334 | 26.93522 | 2457 ft | 74 kts | 37° |
| 2026-04-18 17:27 | 39.52740 | 26.93928 | 2511 ft | 73 kts | 41° |
| 2026-04-18 17:27 | 39.53479 | 26.94866 | 2568 ft | 76 kts | 43° |
| 2026-04-18 17:28 | 39.53856 | 26.95349 | 2608 ft | 75 kts | 45° |
| 2026-04-18 17:28 | 39.54198 | 26.95846 | 2667 ft | 73 kts | 44° |
| 2026-04-18 17:28 | 39.54568 | 26.96318 | 2694 ft | 72 kts | 42° |
| 2026-04-18 17:28 | 39.54878 | 26.96831 | 2658 ft | 74 kts | 52° |
| 2026-04-18 17:29 | 39.55159 | 26.97373 | 2658 ft | 70 kts | 47° |
| 2026-04-18 17:29 | 39.55487 | 26.97827 | 2645 ft | 70 kts | 44° |
| 2026-04-18 17:29 | 39.55817 | 26.98287 | 2660 ft | 69 kts | 44° |
| 2026-04-18 17:29 | 39.56158 | 26.98725 | 2663 ft | 69 kts | 42° |
| 2026-04-18 17:30 | 39.56510 | 26.99165 | 2659 ft | 70 kts | 42° |
| 2026-04-18 17:30 | 39.56882 | 26.99587 | 2660 ft | 70 kts | 41° |
| 2026-04-18 17:30 | 39.57255 | 27.00003 | 2658 ft | 70 kts | 41° |
| 2026-04-18 17:30 | 39.57627 | 27.00422 | 2654 ft | 71 kts | 41° |
| 2026-04-18 17:31 | 39.58000 | 27.00847 | 2655 ft | 71 kts | 41° |
| 2026-04-18 17:31 | 39.58367 | 27.01269 | 2652 ft | 71 kts | 40° |
| 2026-04-18 17:31 | 39.58594 | 27.01840 | 2637 ft | 82 kts | 82° |
| 2026-04-18 17:31 | 39.58071 | 27.02355 | 2603 ft | 125 kts | 174° |
| 2026-04-18 17:32 | 39.57398 | 27.01647 | 2631 ft | 128 kts | 232° |
| 2026-04-18 17:32 | 39.56824 | 27.00744 | 2602 ft | 128 kts | 234° |
| 2026-04-18 17:32 | 39.56279 | 26.99817 | 2396 ft | 126 kts | 237° |
| 2026-04-18 17:32 | 39.55780 | 26.98911 | 2167 ft | 119 kts | 239° |
| 2026-04-18 17:33 | 39.55350 | 26.98063 | 2030 ft | 111 kts | 240° |
| 2026-04-18 17:33 | 39.54546 | 26.96404 | 1838 ft | 107 kts | 242° |
| 2026-04-18 17:33 | 39.54161 | 26.95591 | 1775 ft | 107 kts | 242° |
| 2026-04-18 17:34 | 39.53773 | 26.94772 | 1723 ft | 105 kts | 242° |
| 2026-04-18 17:34 | 39.53328 | 26.94008 | 1670 ft | 113 kts | 210° |
| 2026-04-18 17:34 | 39.52557 | 26.93738 | 1629 ft | 113 kts | 165° |
| 2026-04-18 17:34 | 39.51893 | 26.94143 | 1541 ft | 103 kts | 120° |
| 2026-04-18 17:35 | 39.51736 | 26.94892 | 1526 ft | 79 kts | 59° |
| 2026-04-18 17:35 | 39.52045 | 26.95439 | 1365 ft | 76 kts | 50° |
| 2026-04-18 17:35 | 39.52367 | 26.96005 | 1122 ft | 77 kts | 51° |
| 2026-04-18 17:35 | 39.52660 | 26.96510 | 950 ft | 63 kts | 52° |
| 2026-04-18 17:36 | 39.52914 | 26.96936 | 773 ft | 59 kts | 51° |
| 2026-04-18 17:36 | 39.53168 | 26.97365 | 577 ft | 61 kts | 52° |
| 2026-04-18 17:36 | 39.53419 | 26.97797 | 481 ft | 61 kts | 51° |
| 2026-04-18 17:36 | 39.53671 | 26.98232 | 415 ft | 58 kts | 52° |
| 2026-04-18 17:37 | 39.53904 | 26.98646 | 325 ft | 56 kts | 51° |
| 2026-04-18 17:37 | 39.54139 | 26.99061 | 209 ft | 58 kts | 52° |
| 2026-04-18 17:37 | 39.54372 | 26.99475 | 103 ft | 55 kts | 52° |
| 2026-04-18 17:37 | 39.54590 | 26.99858 | 38 ft | 48 kts | 54° |
| 2026-04-18 17:38 | 39.54798 | 27.00232 | 71 ft | 60 kts | 52° |
| 2026-04-18 17:38 | 39.55032 | 27.00623 | 290 ft | 59 kts | 46° |
| 2026-04-18 17:38 | 39.55309 | 27.01072 | 470 ft | 65 kts | 50° |
| 2026-04-18 17:38 | 39.55609 | 27.01544 | 661 ft | 69 kts | 47° |
| 2026-04-18 17:39 | 39.55953 | 27.02035 | 805 ft | 75 kts | 45° |
| 2026-04-18 17:39 | 39.56322 | 27.02502 | 995 ft | 74 kts | 42° |
| 2026-04-18 17:39 | 39.56720 | 27.02929 | 1161 ft | 75 kts | 39° |
| 2026-04-18 17:39 | 39.57147 | 27.03336 | 1325 ft | 76 kts | 35° |
| 2026-04-18 17:40 | 39.57592 | 27.03710 | 1489 ft | 76 kts | 33° |
| 2026-04-18 17:40 | 39.58109 | 27.03797 | 1676 ft | 84 kts | 349° |
| 2026-04-18 17:40 | 39.58496 | 27.03179 | 1824 ft | 103 kts | 292° |
| 2026-04-18 17:40 | 39.58389 | 27.02172 | 1864 ft | 118 kts | 257° |
| 2026-04-18 17:41 | 39.58077 | 27.01173 | 1972 ft | 126 kts | 245° |
| 2026-04-18 17:41 | 39.57572 | 27.00242 | 2103 ft | 127 kts | 228° |
| 2026-04-18 17:41 | 39.56976 | 26.99427 | 2167 ft | 121 kts | 225° |
| 2026-04-18 17:41 | 39.56381 | 26.98674 | 2191 ft | 119 kts | 223° |
| 2026-04-18 17:42 | 39.55775 | 26.97954 | 2207 ft | 121 kts | 219° |
| 2026-04-18 17:42 | 39.55110 | 26.97235 | 2198 ft | 125 kts | 215° |
| 2026-04-18 17:42 | 39.54451 | 26.96496 | 2173 ft | 127 kts | 227° |
| 2026-04-18 17:42 | 39.53693 | 26.96164 | 2128 ft | 111 kts | 145° |
| 2026-04-18 17:43 | 39.53371 | 26.96856 | 1936 ft | 90 kts | 81° |
| 2026-04-18 17:43 | 39.53410 | 26.97622 | 1484 ft | 79 kts | 60° |
| 2026-04-18 17:43 | 39.53639 | 26.98156 | 1051 ft | 67 kts | 39° |
| 2026-04-18 17:43 | 39.53907 | 26.98600 | 683 ft | 59 kts | 43° |
| 2026-04-18 17:44 | 39.54139 | 26.99020 | 376 ft | 54 kts | 41° |
| 2026-04-18 17:44 | 39.54352 | 26.99402 | 172 ft | 54 kts | 39° |
| 2026-04-18 17:44 | 39.54556 | 26.99794 | 67 ft | 49 kts | 51° |
| 2026-04-18 17:44 | 39.54734 | 27.00108 | 35 ft | 34 kts | 53° |
| 2026-04-18 17:45 | 39.54847 | 27.00308 | 35 ft | 24 kts | 53° |
| 2026-04-18 17:45 | 39.54941 | 27.00476 | 36 ft | 21 kts | 54° |
| 2026-04-18 17:45 | 39.55029 | 27.00626 | 37 ft | 20 kts | 56° |
| 2026-04-18 17:45 | 39.55082 | 27.00737 | 38 ft | 0 kts | 65° |
| 2026-04-18 17:46 | 39.55114 | 27.00793 | 38 ft | 17 kts | 52° |
| 2026-04-18 17:46 | 39.55174 | 27.00923 | 39 ft | 9 kts | 96° |
| 2026-04-18 17:46 | 39.55141 | 27.00966 | 39 ft | 12 kts | 146° |
| 2026-04-18 17:46 | 39.55054 | 27.01046 | 39 ft | 16 kts | 130° |
| 2026-04-18 17:47 | 39.54985 | 27.01117 | 40 ft | 7 kts | 102° |
| 2026-04-18 17:47 | 39.55003 | 27.01166 | 40 ft | 6 kts | 65° |
| 2026-04-18 17:47 | 39.54995 | 27.01199 | 40 ft | 4 kts | 149° |
| 2026-04-18 17:47 | 39.54966 | 27.01226 | 40 ft | 4 kts | 144° |
| 2026-04-18 17:48 | 39.54962 | 27.01230 | 40 ft | 0 kts | 142° |